sensor_id;sensor_type;location;lat;lon;timestamp;pressure;altitude;pressure_sealevel;temperature
27986;BMP280;15453;53.692;10.168;2023-04-07T00:01:04;101524.81;;;11.40
27986;BMP280;15453;53.692;10.168;2023-04-07T00:03:29;101521.22;;;11.40
27986;BMP280;15453;53.692;10.168;2023-04-07T00:05:55;101521.22;;;11.40
27986;BMP280;15453;53.692;10.168;2023-04-07T00:08:20;101520.84;;;11.36
27986;BMP280;15453;53.692;10.168;2023-04-07T00:10:45;101520.84;;;11.25
27986;BMP280;15453;53.692;10.168;2023-04-07T00:13:11;101517.25;;;11.24
27986;BMP280;15453;53.692;10.168;2023-04-07T00:15:36;101517.59;;;11.16
27986;BMP280;15453;53.692;10.168;2023-04-07T00:18:01;101512.56;;;11.13
27986;BMP280;15453;53.692;10.168;2023-04-07T00:20:27;101512.56;;;11.13
27986;BMP280;15453;53.692;10.168;2023-04-07T00:22:52;101512.44;;;11.08
27986;BMP280;15453;53.692;10.168;2023-04-07T00:25:17;101510.47;;;10.97
27986;BMP280;15453;53.692;10.168;2023-04-07T00:27:43;101519.78;;;10.96
27986;BMP280;15453;53.692;10.168;2023-04-07T00:30:08;101521.31;;;10.92
27986;BMP280;15453;53.692;10.168;2023-04-07T00:32:34;101519.03;;;10.89
27986;BMP280;15453;53.692;10.168;2023-04-07T00:35:00;101516.78;;;10.86
27986;BMP280;15453;53.692;10.168;2023-04-07T00:37:25;101511.75;;;10.83
27986;BMP280;15453;53.692;10.168;2023-04-07T00:39:50;101511.75;;;10.83
27986;BMP280;15453;53.692;10.168;2023-04-07T00:42:16;101515.44;;;10.77
27986;BMP280;15453;53.692;10.168;2023-04-07T00:44:41;101522.81;;;10.77
27986;BMP280;15453;53.692;10.168;2023-04-07T00:47:07;101519.47;;;10.75
27986;BMP280;15453;53.692;10.168;2023-04-07T00:49:33;101519.47;;;10.75
27986;BMP280;15453;53.692;10.168;2023-04-07T00:52:00;101518.84;;;10.73
27986;BMP280;15453;53.692;10.168;2023-04-07T00:54:26;101514.44;;;10.72
27986;BMP280;15453;53.692;10.168;2023-04-07T00:56:52;101519.09;;;10.71
27986;BMP280;15453;53.692;10.168;2023-04-07T00:59:17;101518.00;;;10.72
27986;BMP280;15453;53.692;10.168;2023-04-07T01:01:49;101518.00;;;10.72
27986;BMP280;15453;53.692;10.168;2023-04-07T01:04:23;101519.78;;;10.67
27986;BMP280;15453;53.692;10.168;2023-04-07T01:06:50;101517.28;;;10.65
27986;BMP280;15453;53.692;10.168;2023-04-07T01:09:20;101517.28;;;10.65
27986;BMP280;15453;53.692;10.168;2023-04-07T01:14:33;101519.03;;;10.60
27986;BMP280;15453;53.692;10.168;2023-04-07T01:17:02;101532.72;;;10.60
27986;BMP280;15453;53.692;10.168;2023-04-07T01:19:36;101522.22;;;10.57
27986;BMP280;15453;53.692;10.168;2023-04-07T01:22:10;101518.28;;;10.53
27986;BMP280;15453;53.692;10.168;2023-04-07T01:27:37;101530.97;;;10.47
27986;BMP280;15453;53.692;10.168;2023-04-07T01:30:09;101530.97;;;10.47
27986;BMP280;15453;53.692;10.168;2023-04-07T01:32:36;101520.94;;;10.41
27986;BMP280;15453;53.692;10.168;2023-04-07T01:35:03;101521.19;;;10.40
27986;BMP280;15453;53.692;10.168;2023-04-07T01:37:30;101521.19;;;10.40
27986;BMP280;15453;53.692;10.168;2023-04-07T01:39:56;101525.06;;;10.32
27986;BMP280;15453;53.692;10.168;2023-04-07T01:42:21;101522.56;;;10.31
27986;BMP280;15453;53.692;10.168;2023-04-07T01:44:47;101533.97;;;10.28
27986;BMP280;15453;53.692;10.168;2023-04-07T01:47:13;101533.97;;;10.28
27986;BMP280;15453;53.692;10.168;2023-04-07T01:49:39;101524.53;;;10.24
27986;BMP280;15453;53.692;10.168;2023-04-07T01:52:06;101517.25;;;10.18
27986;BMP280;15453;53.692;10.168;2023-04-07T01:54:31;101522.72;;;10.18
27986;BMP280;15453;53.692;10.168;2023-04-07T01:56:57;101514.72;;;10.16
27986;BMP280;15453;53.692;10.168;2023-04-07T01:59:24;101521.50;;;10.14
27986;BMP280;15453;53.692;10.168;2023-04-07T02:01:49;101521.50;;;10.14
27986;BMP280;15453;53.692;10.168;2023-04-07T02:04:31;101539.44;;;10.10
27986;BMP280;15453;53.692;10.168;2023-04-07T02:07:07;101539.44;;;10.10
27986;BMP280;15453;53.692;10.168;2023-04-07T02:09:34;101519.66;;;10.08
27986;BMP280;15453;53.692;10.168;2023-04-07T02:12:03;101519.66;;;10.08
27986;BMP280;15453;53.692;10.168;2023-04-07T02:14:30;101527.84;;;10.08
27986;BMP280;15453;53.692;10.168;2023-04-07T02:16:57;101527.84;;;10.08
27986;BMP280;15453;53.692;10.168;2023-04-07T02:19:23;101519.47;;;10.03
27986;BMP280;15453;53.692;10.168;2023-04-07T02:21:50;101529.88;;;9.94
27986;BMP280;15453;53.692;10.168;2023-04-07T02:24:18;101529.88;;;9.94
27986;BMP280;15453;53.692;10.168;2023-04-07T02:26:44;101525.72;;;9.92
27986;BMP280;15453;53.692;10.168;2023-04-07T02:29:10;101522.13;;;9.91
27986;BMP280;15453;53.692;10.168;2023-04-07T02:31:35;101529.47;;;9.91
27986;BMP280;15453;53.692;10.168;2023-04-07T02:34:00;101533.28;;;9.90
27986;BMP280;15453;53.692;10.168;2023-04-07T02:36:26;101534.38;;;9.89
27986;BMP280;15453;53.692;10.168;2023-04-07T02:38:51;101534.38;;;9.89
27986;BMP280;15453;53.692;10.168;2023-04-07T02:41:16;101534.59;;;9.87
27986;BMP280;15453;53.692;10.168;2023-04-07T02:43:42;101532.06;;;9.86
27986;BMP280;15453;53.692;10.168;2023-04-07T02:46:07;101532.06;;;9.86
27986;BMP280;15453;53.692;10.168;2023-04-07T02:48:32;101542.41;;;9.84
27986;BMP280;15453;53.692;10.168;2023-04-07T02:50:58;101537.97;;;9.83
27986;BMP280;15453;53.692;10.168;2023-04-07T02:53:23;101538.22;;;9.81
27986;BMP280;15453;53.692;10.168;2023-04-07T02:55:48;101541.00;;;9.75
27986;BMP280;15453;53.692;10.168;2023-04-07T02:58:13;101542.47;;;9.77
27986;BMP280;15453;53.692;10.168;2023-04-07T03:00:38;101538.91;;;9.77
27986;BMP280;15453;53.692;10.168;2023-04-07T03:03:04;101549.22;;;9.75
27986;BMP280;15453;53.692;10.168;2023-04-07T03:05:29;101541.25;;;9.73
27986;BMP280;15453;53.692;10.168;2023-04-07T03:07:54;101536.38;;;9.75
27986;BMP280;15453;53.692;10.168;2023-04-07T03:10:20;101534.94;;;9.73
27986;BMP280;15453;53.692;10.168;2023-04-07T03:12:45;101541.84;;;9.75
27986;BMP280;15453;53.692;10.168;2023-04-07T03:15:10;101535.53;;;9.75
27986;BMP280;15453;53.692;10.168;2023-04-07T03:17:35;101547.53;;;9.74
27986;BMP280;15453;53.692;10.168;2023-04-07T03:20:01;101547.53;;;9.74
27986;BMP280;15453;53.692;10.168;2023-04-07T03:22:26;101545.28;;;9.71
27986;BMP280;15453;53.692;10.168;2023-04-07T03:24:51;101545.28;;;9.71
27986;BMP280;15453;53.692;10.168;2023-04-07T03:27:16;101538.09;;;9.70
27986;BMP280;15453;53.692;10.168;2023-04-07T03:29:42;101538.09;;;9.70
27986;BMP280;15453;53.692;10.168;2023-04-07T03:32:07;101539.84;;;9.64
27986;BMP280;15453;53.692;10.168;2023-04-07T03:34:33;101539.84;;;9.64
27986;BMP280;15453;53.692;10.168;2023-04-07T03:36:58;101538.38;;;9.62
27986;BMP280;15453;53.692;10.168;2023-04-07T03:39:23;101537.34;;;9.63
27986;BMP280;15453;53.692;10.168;2023-04-07T03:41:48;101543.63;;;9.63
27986;BMP280;15453;53.692;10.168;2023-04-07T03:44:14;101545.09;;;9.66
27986;BMP280;15453;53.692;10.168;2023-04-07T03:46:39;101545.09;;;9.66
27986;BMP280;15453;53.692;10.168;2023-04-07T03:49:04;101548.88;;;9.65
27986;BMP280;15453;53.692;10.168;2023-04-07T03:51:30;101557.09;;;9.65
27986;BMP280;15453;53.692;10.168;2023-04-07T03:53:57;101557.94;;;9.65
27986;BMP280;15453;53.692;10.168;2023-04-07T03:56:22;101561.50;;;9.66
27986;BMP280;15453;53.692;10.168;2023-04-07T03:58:48;101565.09;;;9.66
27986;BMP280;15453;53.692;10.168;2023-04-07T04:01:14;101568.41;;;9.68
27986;BMP280;15453;53.692;10.168;2023-04-07T04:03:40;101569.47;;;9.67
27986;BMP280;15453;53.692;10.168;2023-04-07T04:06:05;101569.47;;;9.67
27986;BMP280;15453;53.692;10.168;2023-04-07T04:08:31;101573.28;;;9.66
27986;BMP280;15453;53.692;10.168;2023-04-07T04:10:56;101573.28;;;9.66
27986;BMP280;15453;53.692;10.168;2023-04-07T04:13:21;101570.78;;;9.65
27986;BMP280;15453;53.692;10.168;2023-04-07T04:15:46;101580.03;;;9.64
27986;BMP280;15453;53.692;10.168;2023-04-07T04:18:11;101575.84;;;9.61
27986;BMP280;15453;53.692;10.168;2023-04-07T04:20:37;101581.75;;;9.58
27986;BMP280;15453;53.692;10.168;2023-04-07T04:23:02;101588.31;;;9.57
27986;BMP280;15453;53.692;10.168;2023-04-07T04:25:28;101587.06;;;9.53
27986;BMP280;15453;53.692;10.168;2023-04-07T04:27:53;101592.97;;;9.50
27986;BMP280;15453;53.692;10.168;2023-04-07T04:30:18;101597.84;;;9.48
27986;BMP280;15453;53.692;10.168;2023-04-07T04:32:43;101603.97;;;9.44
27986;BMP280;15453;53.692;10.168;2023-04-07T04:35:09;101606.09;;;9.42
27986;BMP280;15453;53.692;10.168;2023-04-07T04:37:34;101601.66;;;9.41
27986;BMP280;15453;53.692;10.168;2023-04-07T04:39:59;101606.97;;;9.36
27986;BMP280;15453;53.692;10.168;2023-04-07T04:42:25;101612.84;;;9.33
27986;BMP280;15453;53.692;10.168;2023-04-07T04:44:52;101612.84;;;9.33
27986;BMP280;15453;53.692;10.168;2023-04-07T04:47:17;101605.56;;;9.27
27986;BMP280;15453;53.692;10.168;2023-04-07T04:49:43;101617.97;;;9.23
27986;BMP280;15453;53.692;10.168;2023-04-07T04:52:08;101618.63;;;9.18
27986;BMP280;15453;53.692;10.168;2023-04-07T04:54:33;101624.56;;;9.15
27986;BMP280;15453;53.692;10.168;2023-04-07T04:56:59;101623.09;;;9.13
27986;BMP280;15453;53.692;10.168;2023-04-07T04:59:25;101623.09;;;9.13
27986;BMP280;15453;53.692;10.168;2023-04-07T05:01:51;101622.88;;;9.08
27986;BMP280;15453;53.692;10.168;2023-04-07T05:04:16;101619.97;;;9.03
27986;BMP280;15453;53.692;10.168;2023-04-07T05:06:43;101626.72;;;9.00
27986;BMP280;15453;53.692;10.168;2023-04-07T05:09:08;101634.91;;;9.00
27986;BMP280;15453;53.692;10.168;2023-04-07T05:11:33;101638.94;;;8.98
27986;BMP280;15453;53.692;10.168;2023-04-07T05:13:58;101644.81;;;8.95
27986;BMP280;15453;53.692;10.168;2023-04-07T05:16:24;101644.81;;;8.95
27986;BMP280;15453;53.692;10.168;2023-04-07T05:18:49;101644.84;;;8.88
27986;BMP280;15453;53.692;10.168;2023-04-07T05:21:15;101644.84;;;8.88
27986;BMP280;15453;53.692;10.168;2023-04-07T05:23:40;101645.50;;;8.84
27986;BMP280;15453;53.692;10.168;2023-04-07T05:26:05;101646.16;;;8.79
27986;BMP280;15453;53.692;10.168;2023-04-07T05:28:30;101645.28;;;8.79
27986;BMP280;15453;53.692;10.168;2023-04-07T05:30:56;101649.72;;;8.80
27986;BMP280;15453;53.692;10.168;2023-04-07T05:33:21;101649.72;;;8.80
27986;BMP280;15453;53.692;10.168;2023-04-07T05:35:47;101649.28;;;8.76
27986;BMP280;15453;53.692;10.168;2023-04-07T05:38:12;101658.53;;;8.82
27986;BMP280;15453;53.692;10.168;2023-04-07T05:40:39;101658.53;;;8.82
27986;BMP280;15453;53.692;10.168;2023-04-07T05:43:04;101661.66;;;8.85
27986;BMP280;15453;53.692;10.168;2023-04-07T05:45:30;101660.41;;;8.88
27986;BMP280;15453;53.692;10.168;2023-04-07T05:47:55;101660.41;;;8.88
27986;BMP280;15453;53.692;10.168;2023-04-07T05:50:20;101653.03;;;8.88
27986;BMP280;15453;53.692;10.168;2023-04-07T05:52:45;101670.88;;;8.97
27986;BMP280;15453;53.692;10.168;2023-04-07T05:55:11;101675.69;;;9.02
27986;BMP280;15453;53.692;10.168;2023-04-07T05:57:36;101675.69;;;9.02
27986;BMP280;15453;53.692;10.168;2023-04-07T06:00:01;101663.91;;;9.01
27986;BMP280;15453;53.692;10.168;2023-04-07T06:02:27;101672.53;;;9.05
27986;BMP280;15453;53.692;10.168;2023-04-07T06:04:52;101679.63;;;9.12
27986;BMP280;15453;53.692;10.168;2023-04-07T06:07:18;101680.00;;;9.22
27986;BMP280;15453;53.692;10.168;2023-04-07T06:09:43;101683.97;;;9.26
27986;BMP280;15453;53.692;10.168;2023-04-07T06:12:08;101683.97;;;9.26
27986;BMP280;15453;53.692;10.168;2023-04-07T06:14:36;101691.94;;;9.34
27986;BMP280;15453;53.692;10.168;2023-04-07T06:17:01;101691.94;;;9.34
27986;BMP280;15453;53.692;10.168;2023-04-07T06:19:26;101695.69;;;9.40
27986;BMP280;15453;53.692;10.168;2023-04-07T06:21:52;101695.69;;;9.40
27986;BMP280;15453;53.692;10.168;2023-04-07T06:24:17;101699.66;;;9.44
27986;BMP280;15453;53.692;10.168;2023-04-07T06:26:43;101699.66;;;9.44
27986;BMP280;15453;53.692;10.168;2023-04-07T06:29:09;101705.47;;;9.54
27986;BMP280;15453;53.692;10.168;2023-04-07T06:31:34;101705.47;;;9.54
27986;BMP280;15453;53.692;10.168;2023-04-07T06:33:59;101705.47;;;9.54
27986;BMP280;15453;53.692;10.168;2023-04-07T06:36:25;101711.56;;;9.62
27986;BMP280;15453;53.692;10.168;2023-04-07T06:38:51;101711.56;;;9.62
27986;BMP280;15453;53.692;10.168;2023-04-07T06:41:16;101711.28;;;9.70
27986;BMP280;15453;53.692;10.168;2023-04-07T06:43:43;101719.66;;;9.75
27986;BMP280;15453;53.692;10.168;2023-04-07T06:46:08;101714.38;;;9.80
27986;BMP280;15453;53.692;10.168;2023-04-07T06:48:34;101719.41;;;9.83
27986;BMP280;15453;53.692;10.168;2023-04-07T06:50:59;101723.38;;;9.87
27986;BMP280;15453;53.692;10.168;2023-04-07T06:53:25;101716.41;;;9.91
27986;BMP280;15453;53.692;10.168;2023-04-07T06:55:50;101721.22;;;9.96
27986;BMP280;15453;53.692;10.168;2023-04-07T06:58:15;101728.53;;;10.02
27986;BMP280;15453;53.692;10.168;2023-04-07T07:00:40;101722.19;;;10.08
27986;BMP280;15453;53.692;10.168;2023-04-07T07:03:05;101722.19;;;10.08
27986;BMP280;15453;53.692;10.168;2023-04-07T07:05:31;101726.53;;;10.22
27986;BMP280;15453;53.692;10.168;2023-04-07T07:07:56;101728.56;;;10.26
27986;BMP280;15453;53.692;10.168;2023-04-07T07:10:21;101742.47;;;10.31
27986;BMP280;15453;53.692;10.168;2023-04-07T07:12:48;101732.25;;;10.38
27986;BMP280;15453;53.692;10.168;2023-04-07T07:15:13;101732.25;;;10.38
27986;BMP280;15453;53.692;10.168;2023-04-07T07:17:38;101729.03;;;10.48
27986;BMP280;15453;53.692;10.168;2023-04-07T07:20:04;101732.34;;;10.56
27986;BMP280;15453;53.692;10.168;2023-04-07T07:22:30;101728.69;;;10.62
27986;BMP280;15453;53.692;10.168;2023-04-07T07:24:55;101728.69;;;10.62
27986;BMP280;15453;53.692;10.168;2023-04-07T07:27:20;101735.31;;;10.73
27986;BMP280;15453;53.692;10.168;2023-04-07T07:29:45;101728.31;;;10.77
27986;BMP280;15453;53.692;10.168;2023-04-07T07:32:10;101728.31;;;10.77
27986;BMP280;15453;53.692;10.168;2023-04-07T07:34:36;101746.28;;;10.91
27986;BMP280;15453;53.692;10.168;2023-04-07T07:37:01;101740.97;;;10.96
27986;BMP280;15453;53.692;10.168;2023-04-07T07:39:26;101740.97;;;10.96
27986;BMP280;15453;53.692;10.168;2023-04-07T07:41:52;101737.47;;;11.07
27986;BMP280;15453;53.692;10.168;2023-04-07T07:44:17;101745.63;;;11.13
27986;BMP280;15453;53.692;10.168;2023-04-07T07:46:44;101754.59;;;11.20
27986;BMP280;15453;53.692;10.168;2023-04-07T07:49:09;101758.94;;;11.28
27986;BMP280;15453;53.692;10.168;2023-04-07T07:51:35;101758.03;;;11.34
27986;BMP280;15453;53.692;10.168;2023-04-07T07:54:00;101756.66;;;11.43
27986;BMP280;15453;53.692;10.168;2023-04-07T07:56:25;101759.31;;;11.49
27986;BMP280;15453;53.692;10.168;2023-04-07T07:58:51;101755.19;;;11.58
27986;BMP280;15453;53.692;10.168;2023-04-07T08:01:16;101755.19;;;11.58
27986;BMP280;15453;53.692;10.168;2023-04-07T08:03:42;101760.75;;;11.70
27986;BMP280;15453;53.692;10.168;2023-04-07T08:06:07;101758.16;;;11.75
27986;BMP280;15453;53.692;10.168;2023-04-07T08:08:33;101758.16;;;11.75
27986;BMP280;15453;53.692;10.168;2023-04-07T08:10:59;101759.13;;;11.80
27986;BMP280;15453;53.692;10.168;2023-04-07T08:13:24;101768.78;;;11.83
27986;BMP280;15453;53.692;10.168;2023-04-07T08:15:49;101764.41;;;11.93
27986;BMP280;15453;53.692;10.168;2023-04-07T08:18:15;101759.91;;;11.99
27986;BMP280;15453;53.692;10.168;2023-04-07T08:20:40;101760.28;;;12.03
27986;BMP280;15453;53.692;10.168;2023-04-07T08:23:05;101766.50;;;12.10
27986;BMP280;15453;53.692;10.168;2023-04-07T08:25:30;101770.84;;;12.17
27986;BMP280;15453;53.692;10.168;2023-04-07T08:27:56;101758.66;;;12.25
27986;BMP280;15453;53.692;10.168;2023-04-07T08:30:21;101766.34;;;12.34
27986;BMP280;15453;53.692;10.168;2023-04-07T08:32:48;101766.34;;;12.34
27986;BMP280;15453;53.692;10.168;2023-04-07T08:35:13;101771.63;;;12.47
27986;BMP280;15453;53.692;10.168;2023-04-07T08:37:39;101771.63;;;12.47
27986;BMP280;15453;53.692;10.168;2023-04-07T08:40:05;101769.94;;;12.58
27986;BMP280;15453;53.692;10.168;2023-04-07T08:42:32;101769.94;;;12.58
27986;BMP280;15453;53.692;10.168;2023-04-07T08:45:04;101768.41;;;12.50
27986;BMP280;15453;53.692;10.168;2023-04-07T08:47:31;101778.19;;;12.69
27986;BMP280;15453;53.692;10.168;2023-04-07T08:50:06;101778.19;;;12.69
27986;BMP280;15453;53.692;10.168;2023-04-07T08:52:43;101766.25;;;12.64
27986;BMP280;15453;53.692;10.168;2023-04-07T08:55:09;101777.84;;;12.77
27986;BMP280;15453;53.692;10.168;2023-04-07T08:57:35;101777.84;;;12.77
27986;BMP280;15453;53.692;10.168;2023-04-07T09:00:01;101778.56;;;12.84
27986;BMP280;15453;53.692;10.168;2023-04-07T09:02:35;101778.91;;;12.88
27986;BMP280;15453;53.692;10.168;2023-04-07T09:05:06;101778.91;;;12.88
27986;BMP280;15453;53.692;10.168;2023-04-07T09:07:32;101770.44;;;12.89
27986;BMP280;15453;53.692;10.168;2023-04-07T09:09:58;101774.97;;;12.95
27986;BMP280;15453;53.692;10.168;2023-04-07T09:12:24;101771.41;;;13.06
27986;BMP280;15453;53.692;10.168;2023-04-07T09:14:52;101771.41;;;13.06
27986;BMP280;15453;53.692;10.168;2023-04-07T09:17:17;101774.75;;;13.20
27986;BMP280;15453;53.692;10.168;2023-04-07T09:19:43;101774.75;;;13.20
27986;BMP280;15453;53.692;10.168;2023-04-07T09:22:08;101771.25;;;13.24
27986;BMP280;15453;53.692;10.168;2023-04-07T09:24:36;101768.25;;;13.37
27986;BMP280;15453;53.692;10.168;2023-04-07T09:27:12;101772.19;;;13.41
27986;BMP280;15453;53.692;10.168;2023-04-07T09:29:40;101773.22;;;13.52
27986;BMP280;15453;53.692;10.168;2023-04-07T09:32:06;101762.06;;;13.58
27986;BMP280;15453;53.692;10.168;2023-04-07T09:34:34;101775.13;;;13.63
27986;BMP280;15453;53.692;10.168;2023-04-07T09:37:01;101773.88;;;13.70
27986;BMP280;15453;53.692;10.168;2023-04-07T09:39:26;101767.91;;;13.73
27986;BMP280;15453;53.692;10.168;2023-04-07T09:41:52;101763.81;;;13.76
27986;BMP280;15453;53.692;10.168;2023-04-07T09:44:18;101763.81;;;13.76
27986;BMP280;15453;53.692;10.168;2023-04-07T09:46:53;101764.28;;;13.73
27986;BMP280;15453;53.692;10.168;2023-04-07T09:49:20;101763.25;;;13.74
27986;BMP280;15453;53.692;10.168;2023-04-07T09:51:57;101759.06;;;13.71
27986;BMP280;15453;53.692;10.168;2023-04-07T09:54:40;101755.22;;;13.72
27986;BMP280;15453;53.692;10.168;2023-04-07T09:57:07;101760.25;;;13.75
27986;BMP280;15453;53.692;10.168;2023-04-07T09:59:35;101760.25;;;13.75
27986;BMP280;15453;53.692;10.168;2023-04-07T10:02:01;101755.78;;;13.74
27986;BMP280;15453;53.692;10.168;2023-04-07T10:04:27;101755.78;;;13.74
27986;BMP280;15453;53.692;10.168;2023-04-07T10:06:53;101754.06;;;13.85
27986;BMP280;15453;53.692;10.168;2023-04-07T10:09:22;101754.06;;;13.85
27986;BMP280;15453;53.692;10.168;2023-04-07T10:11:49;101769.72;;;13.96
27986;BMP280;15453;53.692;10.168;2023-04-07T10:14:15;101769.81;;;14.01
27986;BMP280;15453;53.692;10.168;2023-04-07T10:16:41;101769.91;;;14.06
27986;BMP280;15453;53.692;10.168;2023-04-07T10:19:07;101768.31;;;14.10
27986;BMP280;15453;53.692;10.168;2023-04-07T10:21:38;101765.41;;;14.16
27986;BMP280;15453;53.692;10.168;2023-04-07T10:24:35;101765.41;;;14.16
27986;BMP280;15453;53.692;10.168;2023-04-07T10:27:08;101758.59;;;14.19
27986;BMP280;15453;53.692;10.168;2023-04-07T10:29:39;101763.97;;;14.25
27986;BMP280;15453;53.692;10.168;2023-04-07T10:32:05;101759.47;;;14.36
27986;BMP280;15453;53.692;10.168;2023-04-07T10:37:24;101764.59;;;14.44
27986;BMP280;15453;53.692;10.168;2023-04-07T10:39:51;101765.59;;;14.54
27986;BMP280;15453;53.692;10.168;2023-04-07T10:42:43;101770.94;;;14.61
27986;BMP280;15453;53.692;10.168;2023-04-07T10:45:09;101765.75;;;14.64
27986;BMP280;15453;53.692;10.168;2023-04-07T10:50:24;101775.56;;;14.77
27986;BMP280;15453;53.692;10.168;2023-04-07T10:53:09;101767.66;;;14.80
27986;BMP280;15453;53.692;10.168;2023-04-07T10:55:36;101758.59;;;14.85
27986;BMP280;15453;53.692;10.168;2023-04-07T10:58:22;101757.59;;;14.91
27986;BMP280;15453;53.692;10.168;2023-04-07T11:03:27;101769.31;;;14.98
27986;BMP280;15453;53.692;10.168;2023-04-07T11:06:01;101769.38;;;15.03
27986;BMP280;15453;53.692;10.168;2023-04-07T11:08:33;101762.59;;;15.10
27986;BMP280;15453;53.692;10.168;2023-04-07T11:10:59;101771.19;;;15.14
27986;BMP280;15453;53.692;10.168;2023-04-07T11:13:25;101771.00;;;15.20
27986;BMP280;15453;53.692;10.168;2023-04-07T11:15:51;101767.22;;;15.26
27986;BMP280;15453;53.692;10.168;2023-04-07T11:18:19;101762.63;;;15.32
27986;BMP280;15453;53.692;10.168;2023-04-07T11:20:53;101771.06;;;15.42
27986;BMP280;15453;53.692;10.168;2023-04-07T11:23:20;101757.91;;;15.49
27986;BMP280;15453;53.692;10.168;2023-04-07T11:25:47;101761.28;;;15.56
27986;BMP280;15453;53.692;10.168;2023-04-07T11:28:13;101771.31;;;15.62
27986;BMP280;15453;53.692;10.168;2023-04-07T11:30:44;101759.16;;;15.63
27986;BMP280;15453;53.692;10.168;2023-04-07T11:33:13;101756.66;;;15.61
27986;BMP280;15453;53.692;10.168;2023-04-07T11:35:46;101761.13;;;15.62
27986;BMP280;15453;53.692;10.168;2023-04-07T11:38:11;101768.28;;;15.63
27986;BMP280;15453;53.692;10.168;2023-04-07T11:40:37;101776.44;;;15.75
27986;BMP280;15453;53.692;10.168;2023-04-07T11:43:14;101776.44;;;15.75
27986;BMP280;15453;53.692;10.168;2023-04-07T11:45:41;101770.34;;;15.73
27986;BMP280;15453;53.692;10.168;2023-04-07T11:48:27;101778.44;;;15.79
27986;BMP280;15453;53.692;10.168;2023-04-07T11:50:53;101762.13;;;15.78
27986;BMP280;15453;53.692;10.168;2023-04-07T11:53:25;101770.44;;;15.83
27986;BMP280;15453;53.692;10.168;2023-04-07T11:55:59;101777.44;;;15.90
27986;BMP280;15453;53.692;10.168;2023-04-07T11:58:24;101774.47;;;15.97
27986;BMP280;15453;53.692;10.168;2023-04-07T12:00:57;101784.25;;;16.04
27986;BMP280;15453;53.692;10.168;2023-04-07T12:03:23;101784.25;;;16.04
27986;BMP280;15453;53.692;10.168;2023-04-07T12:05:48;101759.69;;;16.08
27986;BMP280;15453;53.692;10.168;2023-04-07T12:08:14;101776.25;;;16.08
27986;BMP280;15453;53.692;10.168;2023-04-07T12:10:41;101775.75;;;16.11
27986;BMP280;15453;53.692;10.168;2023-04-07T12:13:07;101775.78;;;16.16
27986;BMP280;15453;53.692;10.168;2023-04-07T12:15:33;101775.78;;;16.16
27986;BMP280;15453;53.692;10.168;2023-04-07T12:17:58;101777.16;;;16.13
27986;BMP280;15453;53.692;10.168;2023-04-07T12:20:24;101771.63;;;16.13
27986;BMP280;15453;53.692;10.168;2023-04-07T12:22:49;101771.38;;;16.15
27986;BMP280;15453;53.692;10.168;2023-04-07T12:25:14;101764.72;;;16.16
27986;BMP280;15453;53.692;10.168;2023-04-07T12:27:39;101775.56;;;16.22
27986;BMP280;15453;53.692;10.168;2023-04-07T12:30:06;101768.13;;;16.23
27986;BMP280;15453;53.692;10.168;2023-04-07T12:32:31;101768.44;;;16.26
27986;BMP280;15453;53.692;10.168;2023-04-07T12:34:57;101778.69;;;16.31
27986;BMP280;15453;53.692;10.168;2023-04-07T12:37:23;101775.16;;;16.35
27986;BMP280;15453;53.692;10.168;2023-04-07T12:39:48;101782.03;;;16.33
27986;BMP280;15453;53.692;10.168;2023-04-07T12:42:13;101772.34;;;16.30
27986;BMP280;15453;53.692;10.168;2023-04-07T12:44:38;101786.97;;;16.31
27986;BMP280;15453;53.692;10.168;2023-04-07T12:47:04;101789.44;;;16.27
27986;BMP280;15453;53.692;10.168;2023-04-07T12:49:29;101789.44;;;16.27
27986;BMP280;15453;53.692;10.168;2023-04-07T12:51:55;101787.41;;;16.18
27986;BMP280;15453;53.692;10.168;2023-04-07T12:54:20;101776.81;;;16.10
27986;BMP280;15453;53.692;10.168;2023-04-07T12:56:46;101785.84;;;16.00
27986;BMP280;15453;53.692;10.168;2023-04-07T12:59:11;101788.53;;;15.95
27986;BMP280;15453;53.692;10.168;2023-04-07T13:01:37;101792.34;;;15.89
27986;BMP280;15453;53.692;10.168;2023-04-07T13:04:02;101785.41;;;15.87
27986;BMP280;15453;53.692;10.168;2023-04-07T13:06:28;101796.22;;;15.88
27986;BMP280;15453;53.692;10.168;2023-04-07T13:08:53;101788.44;;;15.85
27986;BMP280;15453;53.692;10.168;2023-04-07T13:11:18;101785.47;;;15.92
27986;BMP280;15453;53.692;10.168;2023-04-07T13:13:43;101782.81;;;16.02
27986;BMP280;15453;53.692;10.168;2023-04-07T13:16:09;101785.69;;;16.12
27986;BMP280;15453;53.692;10.168;2023-04-07T13:18:34;101789.34;;;16.17
27986;BMP280;15453;53.692;10.168;2023-04-07T13:20:59;101780.00;;;16.23
27986;BMP280;15453;53.692;10.168;2023-04-07T13:23:24;101790.28;;;16.28
27986;BMP280;15453;53.692;10.168;2023-04-07T13:25:50;101786.47;;;16.34
27986;BMP280;15453;53.692;10.168;2023-04-07T13:28:15;101788.72;;;16.37
27986;BMP280;15453;53.692;10.168;2023-04-07T13:30:42;101798.03;;;16.31
27986;BMP280;15453;53.692;10.168;2023-04-07T13:33:07;101793.88;;;16.28
27986;BMP280;15453;53.692;10.168;2023-04-07T13:35:33;101790.50;;;16.21
27986;BMP280;15453;53.692;10.168;2023-04-07T13:38:00;101785.44;;;16.13
27986;BMP280;15453;53.692;10.168;2023-04-07T13:40:26;101797.78;;;16.06
27986;BMP280;15453;53.692;10.168;2023-04-07T13:42:51;101793.88;;;16.02
27986;BMP280;15453;53.692;10.168;2023-04-07T13:45:16;101794.66;;;15.97
27986;BMP280;15453;53.692;10.168;2023-04-07T13:47:41;101803.50;;;15.99
27986;BMP280;15453;53.692;10.168;2023-04-07T13:50:07;101800.25;;;16.02
27986;BMP280;15453;53.692;10.168;2023-04-07T13:52:32;101809.03;;;15.99
27986;BMP280;15453;53.692;10.168;2023-04-07T13:54:59;101806.22;;;15.94
27986;BMP280;15453;53.692;10.168;2023-04-07T13:57:25;101810.28;;;15.87
27986;BMP280;15453;53.692;10.168;2023-04-07T13:59:50;101808.75;;;15.74